createdAt,value
2019-02-18T00:02:01.661Z,94.90
2019-02-18T00:06:05.092Z,94.70
2019-02-18T00:10:08.589Z,94.50
2019-02-18T00:14:12.017Z,94.20
2019-02-18T00:18:15.594Z,94.20
2019-02-18T00:22:19.019Z,94.40
2019-02-18T00:26:22.548Z,94.30
2019-02-18T00:30:27.815Z,93.40
2019-02-18T00:34:31.312Z,93.50
2019-02-18T00:38:35.908Z,92.50
2019-02-18T00:42:39.522Z,92.90
2019-02-18T00:46:43.049Z,93.40
2019-02-18T00:50:46.687Z,93.80
2019-02-18T00:54:50.401Z,92.50
2019-02-18T00:58:53.878Z,93.00
2019-02-18T01:02:57.386Z,92.30
2019-02-18T01:07:00.842Z,93.30
2019-02-18T01:11:08.855Z,93.40
2019-02-18T01:15:14.308Z,94.00
2019-02-18T01:19:19.841Z,94.40
2019-02-18T01:23:23.077Z,93.60
2019-02-18T01:27:26.519Z,92.30
2019-02-18T01:31:30.034Z,93.40
2019-02-18T01:35:33.709Z,93.70
2019-02-18T01:39:37.325Z,93.90
2019-02-18T01:43:44.950Z,93.70
2019-02-18T01:47:48.542Z,91.80
2019-02-18T01:51:51.919Z,91.60
2019-02-18T01:55:55.420Z,92.30
2019-02-18T01:59:59.075Z,93.60
2019-02-18T02:04:02.697Z,94.20
2019-02-18T02:08:06.302Z,94.50
2019-02-18T02:12:10.094Z,94.40
2019-02-18T02:16:13.697Z,92.70
2019-02-18T02:20:21.806Z,93.00
2019-02-18T02:24:22.597Z,93.10
2019-02-18T02:28:26.185Z,93.60
2019-02-18T02:32:29.871Z,93.90
2019-02-18T02:36:33.373Z,94.30
2019-02-18T02:40:36.779Z,93.90
2019-02-18T02:44:40.292Z,92.30
2019-02-18T02:48:43.788Z,92.40
2019-02-18T02:52:47.386Z,93.30
2019-02-18T02:56:50.855Z,93.60
2019-02-18T03:00:54.646Z,93.50
2019-02-18T03:04:58.085Z,92.30
2019-02-18T03:09:01.527Z,92.20
2019-02-18T03:13:04.956Z,93.10
2019-02-18T03:17:08.757Z,93.80
2019-02-18T03:21:14.365Z,94.10
2019-02-18T03:25:24.891Z,94.40
2019-02-18T03:29:47.885Z,94.40
2019-02-18T03:33:59.220Z,94.80
2019-02-18T03:38:02.979Z,94.80
2019-02-18T03:42:06.501Z,94.40
2019-02-18T03:46:09.964Z,95.30
2019-02-18T03:50:13.403Z,96.40
2019-02-18T03:54:16.918Z,95.90
2019-02-18T03:58:20.378Z,95.60
2019-02-18T04:02:28.513Z,95.00
2019-02-18T04:06:34.311Z,94.50
2019-02-18T04:10:39.771Z,94.20
2019-02-18T04:14:52.080Z,94.10
2019-02-18T04:18:55.158Z,94.40
2019-02-18T04:22:58.704Z,94.90
2019-02-18T04:27:02.234Z,94.80
2019-02-18T04:31:05.787Z,93.30
2019-02-18T04:35:13.844Z,92.90
2019-02-18T04:39:17.316Z,92.60
2019-02-18T04:43:20.969Z,92.30
2019-02-18T04:47:24.645Z,93.00
2019-02-18T04:51:28.277Z,92.40
2019-02-18T04:55:32.936Z,92.60
2019-02-18T04:59:36.565Z,93.30
2019-02-18T05:03:40.027Z,93.40
2019-02-18T05:07:43.476Z,93.80
2019-02-18T05:11:47.083Z,93.80
2019-02-18T05:15:50.599Z,93.70
2019-02-18T05:19:54.106Z,93.50
2019-02-18T05:23:57.678Z,93.10
2019-02-18T05:28:01.226Z,93.50
2019-02-18T05:32:05.048Z,93.50
2019-02-18T05:36:08.560Z,93.70
2019-02-18T05:40:12.099Z,93.90
2019-02-18T05:44:15.621Z,94.10
2019-02-18T05:48:19.159Z,94.60
2019-02-18T05:52:22.582Z,94.40
2019-02-18T05:56:26.118Z,94.10
2019-02-18T06:00:29.690Z,93.00
2019-02-18T06:04:33.613Z,92.10
2019-02-18T06:08:37.160Z,93.40
2019-02-18T06:12:40.982Z,94.10
2019-02-18T06:16:44.561Z,94.50
2019-02-18T06:20:48.079Z,94.50
2019-02-18T06:24:51.617Z,95.20
2019-02-18T06:28:55.087Z,94.30
2019-02-18T06:33:00.999Z,94.20
2019-02-18T06:37:03.666Z,94.40
2019-02-18T06:41:07.098Z,93.60
2019-02-18T06:45:12.191Z,92.50
2019-02-18T06:49:16.214Z,91.60
2019-02-18T06:53:19.710Z,90.40
2019-02-18T06:57:24.790Z,89.60
2019-02-18T07:01:32.863Z,88.20
2019-02-18T07:05:40.334Z,83.90
2019-02-18T07:09:53.991Z,76.70
2019-02-18T07:13:57.430Z,70.20
2019-02-18T07:18:00.858Z,65.80
2019-02-18T07:22:04.303Z,60.10
2019-02-18T07:26:07.766Z,60.50
2019-02-18T07:30:13.087Z,59.60
2019-02-18T07:34:16.541Z,59.30
2019-02-18T07:38:19.993Z,65.20
2019-02-18T07:42:23.463Z,72.30
2019-02-18T07:46:26.923Z,76.60
2019-02-18T07:50:30.388Z,74.60
2019-02-18T07:54:33.848Z,70.50
2019-02-18T07:58:37.282Z,70.80
2019-02-18T08:02:40.852Z,69.60
2019-02-18T08:06:44.318Z,70.40
2019-02-18T08:10:47.794Z,70.00
2019-02-18T08:14:51.224Z,64.50
2019-02-18T08:18:54.662Z,59.80
2019-02-18T08:22:58.095Z,61.70
2019-02-18T08:27:01.532Z,63.60
2019-02-18T08:31:05.289Z,64.30
2019-02-18T08:35:08.862Z,61.30
2019-02-18T08:39:12.430Z,58.80
2019-02-18T08:43:15.897Z,59.50
2019-02-18T08:47:19.700Z,56.20
2019-02-18T08:51:23.266Z,58.40
2019-02-18T08:55:26.712Z,58.70
2019-02-18T08:59:30.252Z,58.40
2019-02-18T09:03:33.657Z,53.90
2019-02-18T09:07:37.187Z,57.40
2019-02-18T09:11:40.651Z,58.10
2019-02-18T09:15:44.133Z,57.60
2019-02-18T09:19:47.570Z,54.50
2019-02-18T09:23:52.640Z,46.30
2019-02-18T09:27:56.076Z,38.00
2019-02-18T09:31:59.817Z,34.50
2019-02-18T09:36:03.338Z,36.40
2019-02-18T09:40:09.637Z,43.00
2019-02-18T09:44:13.202Z,49.10
2019-02-18T09:48:16.645Z,52.60
2019-02-18T09:52:20.125Z,52.20
2019-02-18T09:56:23.629Z,49.40
2019-02-18T10:00:27.142Z,47.40
2019-02-18T10:04:30.596Z,48.20
2019-02-18T10:08:34.032Z,43.50
2019-02-18T10:12:37.482Z,34.40
2019-02-18T10:16:40.972Z,30.00
2019-02-18T10:20:44.462Z,27.30
2019-02-18T10:24:50.696Z,26.00
2019-02-18T10:28:53.331Z,25.30
2019-02-18T10:32:56.693Z,24.90
2019-02-18T10:37:00.234Z,25.40
2019-02-18T10:41:06.995Z,24.90
2019-02-18T10:45:11.167Z,23.30
2019-02-18T10:49:19.751Z,24.20
2019-02-18T10:53:19.704Z,24.20
2019-02-18T10:57:23.184Z,22.10
2019-02-18T11:01:26.947Z,23.70
2019-02-18T11:05:30.410Z,23.00
2019-02-18T11:09:34.273Z,22.50
2019-02-18T11:13:37.704Z,23.70
2019-02-18T11:17:41.181Z,23.10
2019-02-18T11:21:44.656Z,23.90
2019-02-18T11:25:48.206Z,25.20
2019-02-18T11:29:51.683Z,32.20
2019-02-18T11:33:55.119Z,39.60
2019-02-18T11:37:58.616Z,42.90
2019-02-18T11:42:02.046Z,47.30
2019-02-18T11:46:05.474Z,46.40
2019-02-18T11:50:14.508Z,44.90
2019-02-18T11:54:18.057Z,46.10
2019-02-18T11:58:21.704Z,46.90
2019-02-18T12:02:25.338Z,46.70
2019-02-18T12:06:28.853Z,45.90
2019-02-18T12:10:32.627Z,46.00
2019-02-18T12:14:36.079Z,45.90
2019-02-18T12:18:39.547Z,47.00
2019-02-18T12:22:43.041Z,46.60
2019-02-18T12:26:46.812Z,46.60
2019-02-18T12:30:50.320Z,45.60
2019-02-18T12:34:53.759Z,43.20
2019-02-18T12:38:57.219Z,45.30
2019-02-18T12:43:00.965Z,45.60
2019-02-18T12:47:06.421Z,46.20
2019-02-18T12:51:10.035Z,45.20
2019-02-18T12:55:13.486Z,45.50
2019-02-18T12:59:16.975Z,45.30
2019-02-18T13:03:20.425Z,45.80
2019-02-18T13:07:23.861Z,45.00
2019-02-18T13:11:27.303Z,44.60
2019-02-18T13:15:30.937Z,44.50
2019-02-18T13:19:34.395Z,45.70
2019-02-18T13:23:38.049Z,43.70
2019-02-18T13:27:41.495Z,44.60
2019-02-18T13:31:44.945Z,42.80
2019-02-18T13:35:48.809Z,44.30
2019-02-18T13:39:52.322Z,43.50
2019-02-18T13:43:55.776Z,42.90
2019-02-18T13:47:59.251Z,43.90
2019-02-18T13:52:02.810Z,43.90
2019-02-18T13:56:06.526Z,43.10
2019-02-18T14:00:21.077Z,44.40
2019-02-18T14:04:24.633Z,46.10
2019-02-18T14:08:28.530Z,47.10
2019-02-18T14:12:32.041Z,47.20
2019-02-18T14:16:35.468Z,44.90
2019-02-18T14:20:38.926Z,45.80
2019-02-18T14:24:42.383Z,46.10
2019-02-18T14:28:45.865Z,48.60
2019-02-18T14:32:49.305Z,50.40
2019-02-18T14:36:52.912Z,48.40
2019-02-18T14:40:56.350Z,51.10
2019-02-18T14:44:59.814Z,49.70
2019-02-18T14:49:03.281Z,49.60
2019-02-18T14:53:06.745Z,51.20
2019-02-18T14:57:10.178Z,51.40
2019-02-18T15:01:13.900Z,51.60
2019-02-18T15:05:17.448Z,51.00
2019-02-18T15:09:21.573Z,51.30
2019-02-18T15:13:25.036Z,52.40
2019-02-18T15:17:28.635Z,53.10
2019-02-18T15:21:32.055Z,53.90
2019-02-18T15:25:35.527Z,53.50
2019-02-18T15:29:39.066Z,55.00
2019-02-18T15:33:42.510Z,55.50
2019-02-18T15:37:45.953Z,55.20
2019-02-18T15:41:49.395Z,56.40
2019-02-18T15:45:53.851Z,56.70
2019-02-18T15:49:57.323Z,56.70
2019-02-18T15:54:01.363Z,57.90
2019-02-18T15:58:04.781Z,59.40
2019-02-18T16:02:09.070Z,60.40
2019-02-18T16:06:12.872Z,60.50
2019-02-18T16:10:16.447Z,63.80
2019-02-18T16:14:20.048Z,66.80
2019-02-18T16:18:23.621Z,67.30
2019-02-18T16:22:27.240Z,68.20
2019-02-18T16:26:30.782Z,69.30
2019-02-18T16:30:35.998Z,70.20
2019-02-18T16:34:39.505Z,70.20
2019-02-18T16:38:43.365Z,70.60
2019-02-18T16:42:46.822Z,71.80
2019-02-18T16:46:50.390Z,72.60
2019-02-18T16:50:53.908Z,74.30
2019-02-18T16:54:57.340Z,75.00
2019-02-18T16:59:00.924Z,75.80
2019-02-18T17:03:04.502Z,77.50
2019-02-18T17:07:07.961Z,79.70
2019-02-18T17:11:11.564Z,80.20
2019-02-18T17:15:15.004Z,80.60
2019-02-18T17:19:18.461Z,80.90
2019-02-18T17:23:21.912Z,81.50
2019-02-18T17:27:25.609Z,82.80
2019-02-18T17:31:29.049Z,86.30
2019-02-18T17:35:32.632Z,86.20
2019-02-18T17:39:36.209Z,85.20
2019-02-18T17:43:39.819Z,86.80
2019-02-18T17:47:43.730Z,84.70
2019-02-18T17:51:47.268Z,84.60
2019-02-18T17:55:51.107Z,86.90
2019-02-18T17:59:54.530Z,87.60
2019-02-18T18:03:58.196Z,87.60
2019-02-18T18:08:01.813Z,89.00
2019-02-18T18:12:05.563Z,89.10
2019-02-18T18:16:09.137Z,89.90
2019-02-18T18:20:13.836Z,90.40
2019-02-18T18:24:17.550Z,90.30
2019-02-18T18:28:20.988Z,90.00
2019-02-18T18:32:24.455Z,90.10
2019-02-18T18:36:27.893Z,88.90
2019-02-18T18:40:33.261Z,90.00
2019-02-18T18:44:36.909Z,89.50
2019-02-18T18:48:40.544Z,90.10
2019-02-18T19:01:32.167Z,90.30
2019-02-18T19:05:35.637Z,90.50
2019-02-18T19:09:39.067Z,90.30
2019-02-18T19:13:42.531Z,90.40
2019-02-18T19:17:45.964Z,90.60
2019-02-18T19:21:49.847Z,90.30
2019-02-18T19:25:53.476Z,88.60
2019-02-18T19:29:57.116Z,88.50
2019-02-18T19:34:00.737Z,90.70
2019-02-18T19:38:04.337Z,90.40
2019-02-18T19:42:08.235Z,90.60
2019-02-18T19:46:11.910Z,87.70
2019-02-18T19:50:15.825Z,88.00
2019-02-18T19:54:20.567Z,90.10
2019-02-18T19:58:24.471Z,91.00
2019-02-18T20:02:27.974Z,91.20
2019-02-18T20:06:31.380Z,91.50
2019-02-18T20:10:35.042Z,91.50
2019-02-18T20:14:38.807Z,91.50
2019-02-18T20:18:42.588Z,91.40
2019-02-18T20:22:46.273Z,91.10
2019-02-18T20:26:49.844Z,90.50
2019-02-18T20:30:53.451Z,90.00
2019-02-18T20:34:57.135Z,89.00
2019-02-18T20:39:01.030Z,88.50
2019-02-18T20:43:05.124Z,87.80
2019-02-18T20:47:09.148Z,87.10
2019-02-18T20:51:12.573Z,86.40
2019-02-18T20:55:16.376Z,86.40
2019-02-18T20:59:19.986Z,85.40
2019-02-18T21:03:23.497Z,84.20
2019-02-18T21:07:27.149Z,83.50
2019-02-18T21:11:30.626Z,82.60
2019-02-18T21:15:34.172Z,81.50
2019-02-18T21:19:38.874Z,80.40
2019-02-18T21:23:42.389Z,79.70
2019-02-18T21:27:45.988Z,78.30
2019-02-18T21:31:49.562Z,76.40
2019-02-18T21:35:56.016Z,73.10
2019-02-18T21:39:59.573Z,71.60
2019-02-18T21:44:03.022Z,72.10
2019-02-18T21:48:06.523Z,73.20
2019-02-18T21:52:10.135Z,73.60
2019-02-18T21:56:13.686Z,74.20
2019-02-18T22:00:21.278Z,75.50
2019-02-18T22:04:24.696Z,76.40
2019-02-18T22:08:28.135Z,77.10
2019-02-18T22:12:31.830Z,77.20
2019-02-18T22:16:35.241Z,77.50
2019-02-18T22:20:39.108Z,78.00
2019-02-18T22:24:42.503Z,78.50
2019-02-18T22:28:46.225Z,78.50
2019-02-18T22:32:49.656Z,78.60
2019-02-18T22:36:53.400Z,79.30
2019-02-18T22:40:56.883Z,79.20
2019-02-18T22:45:00.366Z,78.20
2019-02-18T22:49:03.776Z,78.10
2019-02-18T22:53:07.225Z,78.40
2019-02-18T22:57:10.661Z,78.50
2019-02-18T23:01:14.171Z,78.60
2019-02-18T23:05:17.670Z,78.20
2019-02-18T23:09:21.029Z,78.00
2019-02-18T23:13:24.489Z,78.00
2019-02-18T23:17:27.925Z,78.10
2019-02-18T23:21:31.369Z,78.10
2019-02-18T23:25:34.786Z,76.60
2019-02-18T23:29:38.252Z,75.40
2019-02-18T23:33:41.673Z,74.90
2019-02-18T23:37:45.099Z,74.70
2019-02-18T23:41:48.669Z,74.50
2019-02-18T23:45:53.904Z,74.30
2019-02-18T23:49:59.219Z,75.10
2019-02-18T23:54:02.788Z,75.00
2019-02-18T23:58:06.313Z,75.10
